LGS3432 KEWR-EBBR
Flight info
| Callsign | LGS3432 |
|---|---|
| Flight time | 6h 26m |
| Altitude | 37000 |
| Route | GREKI DCT JUDDS DCT MARTN DCT TOPPS N569B TUDEP/M081F370 NATX GISTI/N0459F370 DCT BAKUR DCT OKSAW DCT KONAN UL607 KOK |
| Aircraft | B772/H-SDE2E3FGHIJ5LORVWXY/LB1D1 |
Departure
| Time | 2026-05-06 21:11 |
|---|---|
| Airport | Newark Liberty International Airport (KEWR) |
Arrival
| Time | 2026-05-07 03:37 |
|---|---|
| Airport | Brussels Airport (EBBR) |
| Time | Latitude | Longitude | Altitude | Speed | Heading |
|---|---|---|---|---|---|
| 2026-05-06 20:39 | 40.69772 | -74.16988 | 0 ft | 0 kts | 94° |
| 2026-05-06 21:01 | 40.69772 | -74.16989 | 45 ft | 2 kts | 94° |
| 2026-05-06 21:01 | 40.69775 | -74.17022 | 26 ft | 4 kts | 99° |
| 2026-05-06 21:02 | 40.69780 | -74.17056 | 25 ft | 4 kts | 105° |
| 2026-05-06 21:02 | 40.69788 | -74.17090 | 24 ft | 4 kts | 112° |
| 2026-05-06 21:02 | 40.69799 | -74.17122 | 24 ft | 4 kts | 118° |
| 2026-05-06 21:02 | 40.69813 | -74.17153 | 26 ft | 4 kts | 125° |
| 2026-05-06 21:03 | 40.69829 | -74.17181 | 25 ft | 4 kts | 131° |
| 2026-05-06 21:03 | 40.69846 | -74.17204 | 25 ft | 1 kts | 134° |
| 2026-05-06 21:03 | 40.69846 | -74.17205 | 25 ft | 3 kts | 134° |
| 2026-05-06 21:06 | 40.69839 | -74.17195 | 25 ft | 5 kts | 134° |
| 2026-05-06 21:06 | 40.69802 | -74.17149 | 24 ft | 8 kts | 141° |
| 2026-05-06 21:06 | 40.69757 | -74.17106 | 26 ft | 8 kts | 146° |
| 2026-05-06 21:06 | 40.69709 | -74.17068 | 26 ft | 8 kts | 153° |
| 2026-05-06 21:07 | 40.69659 | -74.17035 | 26 ft | 8 kts | 153° |
| 2026-05-06 21:07 | 40.69633 | -74.16977 | 26 ft | 8 kts | 86° |
| 2026-05-06 21:07 | 40.69648 | -74.16907 | 26 ft | 8 kts | 72° |
| 2026-05-06 21:07 | 40.69665 | -74.16836 | 26 ft | 8 kts | 72° |
| 2026-05-06 21:08 | 40.69684 | -74.16767 | 31 ft | 8 kts | 63° |
| 2026-05-06 21:08 | 40.69725 | -74.16719 | 31 ft | 8 kts | 28° |
| 2026-05-06 21:08 | 40.69775 | -74.16685 | 30 ft | 8 kts | 27° |
| 2026-05-06 21:08 | 40.69825 | -74.16651 | 30 ft | 8 kts | 26° |
| 2026-05-06 21:09 | 40.69875 | -74.16619 | 29 ft | 8 kts | 26° |
| 2026-05-06 21:09 | 40.69904 | -74.16582 | 25 ft | 0 kts | 73° |
| 2026-05-06 21:10 | 40.69904 | -74.16579 | 29 ft | 3 kts | 74° |
| 2026-05-06 21:10 | 40.69888 | -74.16490 | 27 ft | 13 kts | 142° |
| 2026-05-06 21:10 | 40.69840 | -74.16480 | 27 ft | 9 kts | 189° |
| 2026-05-06 21:10 | 40.69782 | -74.16514 | 27 ft | 9 kts | 205° |
| 2026-05-06 21:11 | 40.69666 | -74.16586 | 29 ft | 38 kts | 206° |
| 2026-05-06 21:11 | 40.69209 | -74.16881 | 26 ft | 106 kts | 206° |
| 2026-05-06 21:11 | 40.68055 | -74.17643 | 261 ft | 155 kts | 208° |
| 2026-05-06 21:11 | 40.67421 | -74.18080 | 767 ft | 151 kts | 208° |
| 2026-05-06 21:12 | 40.66493 | -74.18725 | 1452 ft | 151 kts | 205° |
| 2026-05-06 21:12 | 40.65391 | -74.18844 | 1811 ft | 173 kts | 182° |
| 2026-05-06 21:12 | 40.64138 | -74.18458 | 2040 ft | 207 kts | 155° |
| 2026-05-06 21:12 | 40.63144 | -74.16876 | 2202 ft | 248 kts | 112° |
| 2026-05-06 21:13 | 40.63305 | -74.13796 | 2801 ft | 269 kts | 61° |
| 2026-05-06 21:13 | 40.64047 | -74.12469 | 3220 ft | 268 kts | 41° |
| 2026-05-06 21:13 | 40.65488 | -74.10901 | 3790 ft | 271 kts | 31° |
| 2026-05-06 21:13 | 40.67044 | -74.09473 | 4465 ft | 270 kts | 29° |
| 2026-05-06 21:14 | 40.68604 | -74.08083 | 5126 ft | 273 kts | 29° |
| 2026-05-06 21:14 | 40.70197 | -74.06655 | 5678 ft | 279 kts | 30° |
| 2026-05-06 21:14 | 40.71796 | -74.05201 | 6280 ft | 281 kts | 29° |
| 2026-05-06 21:14 | 40.73412 | -74.03711 | 6765 ft | 286 kts | 30° |
| 2026-05-06 21:15 | 40.75034 | -74.02201 | 7235 ft | 292 kts | 30° |
| 2026-05-06 21:15 | 40.76701 | -74.00636 | 7740 ft | 296 kts | 30° |
| 2026-05-06 21:15 | 40.78390 | -73.99037 | 8220 ft | 302 kts | 30° |
| 2026-05-06 21:15 | 40.80109 | -73.97404 | 8661 ft | 307 kts | 30° |
| 2026-05-06 21:16 | 40.81847 | -73.95743 | 9198 ft | 309 kts | 30° |
| 2026-05-06 21:16 | 40.83599 | -73.94063 | 9700 ft | 313 kts | 30° |
| 2026-05-06 21:16 | 40.85373 | -73.92362 | 10096 ft | 317 kts | 30° |
| 2026-05-06 21:16 | 40.87163 | -73.90643 | 10600 ft | 319 kts | 31° |
| 2026-05-06 21:17 | 40.88957 | -73.88915 | 11212 ft | 319 kts | 31° |
| 2026-05-06 21:17 | 40.90766 | -73.87172 | 11790 ft | 323 kts | 31° |
| 2026-05-06 21:17 | 40.92594 | -73.85411 | 12464 ft | 326 kts | 31° |
| 2026-05-06 21:17 | 40.94433 | -73.83638 | 13114 ft | 329 kts | 31° |
| 2026-05-06 21:18 | 40.96295 | -73.81842 | 13729 ft | 333 kts | 31° |
| 2026-05-06 21:18 | 40.98179 | -73.80022 | 14297 ft | 336 kts | 31° |
| 2026-05-06 21:18 | 41.00076 | -73.78188 | 14889 ft | 339 kts | 31° |
| 2026-05-06 21:18 | 41.01987 | -73.76339 | 15488 ft | 342 kts | 31° |
| 2026-05-06 21:19 | 41.03915 | -73.74472 | 16055 ft | 346 kts | 31° |
| 2026-05-06 21:19 | 41.05914 | -73.72541 | 16242 ft | 365 kts | 32° |
| 2026-05-06 21:19 | 41.08100 | -73.70759 | 16353 ft | 376 kts | 18° |
| 2026-05-06 21:19 | 41.10608 | -73.69742 | 16612 ft | 380 kts | 5° |
| 2026-05-06 21:20 | 41.13227 | -73.69030 | 17032 ft | 388 kts | 5° |
| 2026-05-06 21:20 | 41.15902 | -73.68317 | 17614 ft | 394 kts | 5° |
| 2026-05-06 21:20 | 41.18594 | -73.67593 | 18222 ft | 397 kts | 5° |
| 2026-05-06 21:20 | 41.21300 | -73.66853 | 18811 ft | 398 kts | 5° |
| 2026-05-06 21:21 | 41.24018 | -73.66094 | 19475 ft | 398 kts | 4° |
| 2026-05-06 21:21 | 41.26726 | -73.65329 | 20130 ft | 398 kts | 4° |
| 2026-05-06 21:21 | 41.29433 | -73.64560 | 20707 ft | 399 kts | 4° |
| 2026-05-06 21:21 | 41.32159 | -73.63783 | 21277 ft | 401 kts | 3° |
| 2026-05-06 21:22 | 41.34896 | -73.63001 | 21848 ft | 403 kts | 3° |
| 2026-05-06 21:22 | 41.37633 | -73.62217 | 22447 ft | 403 kts | 2° |
| 2026-05-06 21:22 | 41.40381 | -73.61428 | 23030 ft | 405 kts | 2° |
| 2026-05-06 21:22 | 41.43107 | -73.60646 | 23557 ft | 406 kts | 2° |
| 2026-05-06 21:23 | 41.45881 | -73.59850 | 23985 ft | 409 kts | 2° |
| 2026-05-06 21:23 | 41.48675 | -73.59050 | 24354 ft | 414 kts | 2° |
| 2026-05-06 21:23 | 41.51505 | -73.58238 | 24745 ft | 417 kts | 2° |
| 2026-05-06 21:23 | 41.54353 | -73.57418 | 25143 ft | 421 kts | 2° |
| 2026-05-06 21:24 | 41.57227 | -73.56590 | 25542 ft | 424 kts | 2° |
| 2026-05-06 21:24 | 41.60120 | -73.55756 | 25951 ft | 427 kts | 1° |
| 2026-05-06 21:24 | 41.63037 | -73.54913 | 26332 ft | 431 kts | 1° |
| 2026-05-06 21:24 | 41.65984 | -73.54062 | 26696 ft | 435 kts | 1° |
| 2026-05-06 21:25 | 41.68950 | -73.53204 | 27125 ft | 438 kts | 1° |
| 2026-05-06 21:25 | 41.71937 | -73.52337 | 27571 ft | 441 kts | 1° |
| 2026-05-06 21:25 | 41.74942 | -73.51466 | 27966 ft | 444 kts | 1° |
| 2026-05-06 21:25 | 41.77964 | -73.50588 | 28408 ft | 447 kts | 1° |
| 2026-05-06 21:26 | 41.81019 | -73.49700 | 28809 ft | 450 kts | 0° |
| 2026-05-06 21:26 | 41.84098 | -73.48806 | 29206 ft | 454 kts | 0° |
| 2026-05-06 21:26 | 41.87195 | -73.47905 | 29609 ft | 457 kts | 0° |
| 2026-05-06 21:26 | 41.90315 | -73.46996 | 30000 ft | 460 kts | 0° |
| 2026-05-06 21:27 | 41.93450 | -73.46080 | 30353 ft | 462 kts | 360° |
| 2026-05-06 21:27 | 41.96596 | -73.45160 | 30722 ft | 463 kts | 360° |
| 2026-05-06 21:27 | 41.99753 | -73.44235 | 31082 ft | 465 kts | 360° |
| 2026-05-06 21:27 | 42.02909 | -73.43311 | 31433 ft | 466 kts | 360° |
| 2026-05-06 21:28 | 42.06089 | -73.42381 | 31717 ft | 469 kts | 360° |
| 2026-05-06 21:28 | 42.09292 | -73.41444 | 31978 ft | 472 kts | 360° |
| 2026-05-06 21:28 | 42.12507 | -73.40500 | 32277 ft | 474 kts | 360° |
| 2026-05-06 21:28 | 42.15739 | -73.39548 | 32603 ft | 476 kts | 360° |
| 2026-05-06 21:29 | 42.18976 | -73.38594 | 32909 ft | 478 kts | 360° |
| 2026-05-06 21:29 | 42.22228 | -73.37636 | 33212 ft | 480 kts | 360° |
| 2026-05-06 21:29 | 42.25456 | -73.36685 | 33489 ft | 482 kts | 360° |
| 2026-05-06 21:29 | 42.28776 | -73.35706 | 33755 ft | 484 kts | 360° |
| 2026-05-06 21:30 | 42.32085 | -73.34730 | 33940 ft | 487 kts | 0° |
| 2026-05-06 21:30 | 42.35368 | -73.33764 | 34089 ft | 490 kts | 0° |
| 2026-05-06 21:30 | 42.38700 | -73.32774 | 34345 ft | 491 kts | 0° |
| 2026-05-06 21:30 | 42.42038 | -73.31779 | 34617 ft | 492 kts | 0° |
| 2026-05-06 21:31 | 42.45389 | -73.30782 | 34823 ft | 494 kts | 0° |
| 2026-05-06 21:31 | 42.48754 | -73.29784 | 35005 ft | 496 kts | 0° |
| 2026-05-06 21:31 | 42.52140 | -73.28780 | 35145 ft | 498 kts | 1° |
| 2026-05-06 21:31 | 42.55496 | -73.27376 | 35232 ft | 518 kts | 14° |
| 2026-05-06 21:32 | 42.58684 | -73.24890 | 35361 ft | 540 kts | 28° |
| 2026-05-06 21:32 | 42.63849 | -73.17180 | 35686 ft | 563 kts | 48° |
| 2026-05-06 21:32 | 42.66138 | -73.12837 | 35768 ft | 566 kts | 49° |
| 2026-05-06 21:33 | 42.68410 | -73.08452 | 35878 ft | 567 kts | 49° |
| 2026-05-06 21:33 | 42.70690 | -73.04065 | 36106 ft | 567 kts | 49° |
| 2026-05-06 21:33 | 42.72985 | -72.99704 | 36302 ft | 567 kts | 49° |
| 2026-05-06 21:33 | 42.75286 | -72.95392 | 36462 ft | 568 kts | 48° |
| 2026-05-06 21:34 | 42.77629 | -72.91043 | 36585 ft | 569 kts | 48° |
| 2026-05-06 21:34 | 42.79981 | -72.86700 | 36685 ft | 571 kts | 48° |
| 2026-05-06 21:34 | 42.84709 | -72.77970 | 36759 ft | 574 kts | 48° |
| 2026-05-06 21:35 | 42.89453 | -72.69165 | 36771 ft | 578 kts | 49° |
| 2026-05-06 21:35 | 42.94206 | -72.60298 | 36777 ft | 579 kts | 49° |
| 2026-05-06 21:36 | 42.98961 | -72.51393 | 36778 ft | 582 kts | 49° |
| 2026-05-06 21:36 | 43.03733 | -72.42432 | 36776 ft | 583 kts | 49° |
| 2026-05-06 21:37 | 43.08476 | -72.33498 | 36778 ft | 585 kts | 50° |
| 2026-05-06 21:37 | 43.13251 | -72.24480 | 36773 ft | 584 kts | 50° |
| 2026-05-06 21:38 | 43.18005 | -72.15474 | 36774 ft | 583 kts | 50° |
| 2026-05-06 21:38 | 43.22740 | -72.06476 | 36755 ft | 581 kts | 50° |
| 2026-05-06 21:39 | 43.27459 | -71.97482 | 36769 ft | 579 kts | 50° |
| 2026-05-06 21:39 | 43.32157 | -71.88501 | 36778 ft | 578 kts | 50° |
| 2026-05-06 21:40 | 43.36834 | -71.79534 | 36759 ft | 577 kts | 51° |
| 2026-05-06 21:40 | 43.41497 | -71.70565 | 36767 ft | 576 kts | 51° |
| 2026-05-06 21:41 | 43.46145 | -71.61598 | 36762 ft | 575 kts | 51° |
| 2026-05-06 21:41 | 43.50784 | -71.52622 | 36759 ft | 574 kts | 51° |
| 2026-05-06 21:42 | 43.55398 | -71.43666 | 36766 ft | 573 kts | 51° |
| 2026-05-06 21:42 | 43.60002 | -71.34702 | 36757 ft | 572 kts | 51° |
| 2026-05-06 21:43 | 43.64594 | -71.25733 | 36762 ft | 571 kts | 52° |
| 2026-05-06 21:43 | 43.69139 | -71.16832 | 36763 ft | 571 kts | 52° |
| 2026-05-06 21:44 | 43.73703 | -71.07864 | 36764 ft | 570 kts | 52° |
| 2026-05-06 21:44 | 43.78252 | -70.98898 | 36767 ft | 569 kts | 52° |
| 2026-05-06 21:45 | 43.82792 | -70.89925 | 36774 ft | 569 kts | 52° |
| 2026-05-06 21:45 | 43.87321 | -70.80944 | 36766 ft | 568 kts | 52° |
| 2026-05-06 21:46 | 43.91833 | -70.71968 | 36773 ft | 568 kts | 53° |
| 2026-05-06 21:46 | 43.96341 | -70.62974 | 36773 ft | 567 kts | 53° |
| 2026-05-06 21:47 | 44.00834 | -70.53982 | 36785 ft | 566 kts | 53° |
| 2026-05-06 21:47 | 44.05314 | -70.44989 | 36788 ft | 566 kts | 53° |
| 2026-05-06 21:48 | 44.09786 | -70.35984 | 36788 ft | 565 kts | 54° |
| 2026-05-06 21:48 | 44.14245 | -70.26977 | 36791 ft | 565 kts | 54° |
| 2026-05-06 21:49 | 44.18695 | -70.17960 | 36786 ft | 565 kts | 54° |
| 2026-05-06 21:49 | 44.23110 | -70.08987 | 36798 ft | 564 kts | 54° |
| 2026-05-06 21:50 | 44.27546 | -69.99942 | 36802 ft | 566 kts | 54° |
| 2026-05-06 21:50 | 44.31984 | -69.90866 | 36794 ft | 566 kts | 54° |
| 2026-05-06 21:51 | 44.36410 | -69.81785 | 36806 ft | 565 kts | 55° |
| 2026-05-06 21:51 | 44.40829 | -69.72690 | 36813 ft | 565 kts | 55° |
| 2026-05-06 21:52 | 44.45240 | -69.63584 | 36778 ft | 565 kts | 55° |
| 2026-05-06 21:52 | 44.49636 | -69.54478 | 36780 ft | 565 kts | 56° |
| 2026-05-06 21:53 | 44.54027 | -69.45355 | 36788 ft | 565 kts | 56° |
| 2026-05-06 21:53 | 44.58409 | -69.36221 | 36792 ft | 564 kts | 56° |
| 2026-05-06 21:54 | 44.62785 | -69.27071 | 36792 ft | 564 kts | 56° |
| 2026-05-06 21:54 | 44.67151 | -69.17913 | 36800 ft | 564 kts | 56° |
| 2026-05-06 21:55 | 44.71508 | -69.08745 | 36802 ft | 564 kts | 57° |
| 2026-05-06 21:55 | 44.75855 | -68.99570 | 36818 ft | 564 kts | 57° |
| 2026-05-06 21:56 | 44.80200 | -68.90370 | 36813 ft | 564 kts | 57° |
| 2026-05-06 21:56 | 44.84533 | -68.81164 | 36814 ft | 564 kts | 57° |
| 2026-05-06 21:57 | 44.88856 | -68.71949 | 36815 ft | 564 kts | 57° |
| 2026-05-06 21:57 | 44.93179 | -68.62706 | 36819 ft | 564 kts | 58° |
| 2026-05-06 21:58 | 44.97468 | -68.53505 | 36814 ft | 565 kts | 58° |
| 2026-05-06 21:58 | 45.01773 | -68.44239 | 36816 ft | 564 kts | 58° |
| 2026-05-06 21:59 | 45.06074 | -68.34953 | 36825 ft | 564 kts | 58° |
| 2026-05-06 21:59 | 45.10365 | -68.25660 | 36821 ft | 564 kts | 58° |
| 2026-05-06 22:00 | 45.14644 | -68.16360 | 36835 ft | 564 kts | 58° |
| 2026-05-06 22:00 | 45.18921 | -68.07034 | 36950 ft | 565 kts | 58° |
| 2026-05-06 22:01 | 45.21059 | -68.02358 | 36828 ft | 565 kts | 58° |
| 2026-05-06 22:01 | 45.23195 | -67.97681 | 36839 ft | 565 kts | 58° |
| 2026-05-06 22:01 | 45.26747 | -67.89887 | 36845 ft | 565 kts | 58° |
| 2026-05-06 22:02 | 45.31009 | -67.80507 | 36850 ft | 566 kts | 58° |
| 2026-05-06 22:02 | 45.35339 | -67.71165 | 36849 ft | 566 kts | 56° |
| 2026-05-06 22:03 | 45.39971 | -67.62118 | 36851 ft | 566 kts | 54° |
| 2026-05-06 22:03 | 45.44683 | -67.53126 | 36855 ft | 566 kts | 54° |
| 2026-05-06 22:04 | 45.49362 | -67.44108 | 36853 ft | 566 kts | 54° |
| 2026-05-06 22:04 | 45.54002 | -67.35055 | 36855 ft | 565 kts | 55° |
| 2026-05-06 22:05 | 45.58619 | -67.25990 | 36861 ft | 565 kts | 55° |
| 2026-05-06 22:05 | 45.63231 | -67.16911 | 36860 ft | 564 kts | 55° |
| 2026-05-06 22:06 | 45.67831 | -67.07834 | 36862 ft | 564 kts | 55° |
| 2026-05-06 22:06 | 45.72425 | -66.98743 | 36862 ft | 564 kts | 55° |
| 2026-05-06 22:07 | 45.77012 | -66.89635 | 36864 ft | 563 kts | 55° |
| 2026-05-06 22:07 | 45.81591 | -66.80514 | 36861 ft | 563 kts | 55° |
| 2026-05-06 22:08 | 45.86128 | -66.71446 | 36861 ft | 563 kts | 55° |
| 2026-05-06 22:08 | 45.90718 | -66.62245 | 36864 ft | 563 kts | 55° |
| 2026-05-06 22:09 | 45.95245 | -66.53138 | 36864 ft | 563 kts | 55° |
| 2026-05-06 22:09 | 45.99788 | -66.43970 | 36871 ft | 563 kts | 55° |
| 2026-05-06 22:10 | 46.04317 | -66.34801 | 36870 ft | 563 kts | 55° |
| 2026-05-06 22:10 | 46.08855 | -66.25582 | 36877 ft | 563 kts | 56° |
| 2026-05-06 22:11 | 46.13379 | -66.16365 | 36891 ft | 563 kts | 56° |
| 2026-05-06 22:11 | 46.17887 | -66.07146 | 36887 ft | 563 kts | 56° |
| 2026-05-06 22:12 | 46.22393 | -65.97904 | 36879 ft | 562 kts | 56° |
| 2026-05-06 22:12 | 46.26890 | -65.88648 | 36880 ft | 562 kts | 56° |
| 2026-05-06 22:13 | 46.31376 | -65.79386 | 36883 ft | 562 kts | 56° |
| 2026-05-06 22:13 | 46.35855 | -65.70106 | 36881 ft | 562 kts | 56° |
| 2026-05-06 22:14 | 46.40325 | -65.60816 | 36883 ft | 562 kts | 56° |
| 2026-05-06 22:14 | 46.44787 | -65.51508 | 36884 ft | 562 kts | 56° |
| 2026-05-06 22:15 | 46.49238 | -65.42196 | 36887 ft | 562 kts | 55° |
| 2026-05-06 22:15 | 46.53684 | -65.32862 | 36884 ft | 562 kts | 55° |
| 2026-05-06 22:16 | 46.58118 | -65.23521 | 36882 ft | 561 kts | 55° |
| 2026-05-06 22:16 | 46.62507 | -65.14244 | 36883 ft | 561 kts | 55° |
| 2026-05-06 22:17 | 46.66920 | -65.04886 | 36875 ft | 560 kts | 55° |
| 2026-05-06 22:17 | 46.71321 | -64.95521 | 36869 ft | 560 kts | 55° |
| 2026-05-06 22:18 | 46.75717 | -64.86137 | 36870 ft | 560 kts | 55° |
| 2026-05-06 22:18 | 46.80098 | -64.76751 | 36873 ft | 560 kts | 56° |
| 2026-05-06 22:19 | 46.84475 | -64.67343 | 36868 ft | 560 kts | 56° |
| 2026-05-06 22:19 | 46.88841 | -64.57928 | 36870 ft | 560 kts | 56° |
| 2026-05-06 22:20 | 46.93198 | -64.48498 | 36868 ft | 560 kts | 56° |
| 2026-05-06 22:20 | 46.97548 | -64.39051 | 36877 ft | 560 kts | 56° |
| 2026-05-06 22:21 | 47.01890 | -64.29590 | 36875 ft | 560 kts | 56° |
| 2026-05-06 22:21 | 47.06229 | -64.20105 | 36881 ft | 560 kts | 56° |
| 2026-05-06 22:22 | 47.10559 | -64.10604 | 36881 ft | 560 kts | 56° |
| 2026-05-06 22:22 | 47.14887 | -64.01077 | 36884 ft | 560 kts | 56° |
| 2026-05-06 22:23 | 47.19178 | -63.91598 | 36884 ft | 561 kts | 56° |
| 2026-05-06 22:23 | 47.23487 | -63.82044 | 36891 ft | 561 kts | 56° |
| 2026-05-06 22:24 | 47.27789 | -63.72476 | 36874 ft | 561 kts | 56° |
| 2026-05-06 22:24 | 47.32086 | -63.62883 | 36897 ft | 561 kts | 56° |
| 2026-05-06 22:25 | 47.36373 | -63.53282 | 36887 ft | 561 kts | 56° |
| 2026-05-06 22:25 | 47.40653 | -63.43660 | 36901 ft | 560 kts | 56° |
| 2026-05-06 22:26 | 47.44916 | -63.34043 | 36895 ft | 560 kts | 56° |
| 2026-05-06 22:26 | 47.49178 | -63.24396 | 36903 ft | 560 kts | 56° |
| 2026-05-06 22:27 | 47.53424 | -63.14751 | 36897 ft | 560 kts | 56° |
| 2026-05-06 22:27 | 47.57663 | -63.05085 | 36906 ft | 559 kts | 56° |
| 2026-05-06 22:28 | 47.61891 | -62.95414 | 36911 ft | 559 kts | 56° |
| 2026-05-06 22:28 | 47.66112 | -62.85723 | 36909 ft | 559 kts | 56° |
| 2026-05-06 22:29 | 47.70325 | -62.76016 | 36913 ft | 559 kts | 56° |
| 2026-05-06 22:29 | 47.74528 | -62.66296 | 36913 ft | 559 kts | 56° |
| 2026-05-06 22:30 | 47.78718 | -62.56573 | 36917 ft | 559 kts | 56° |
| 2026-05-06 22:30 | 47.82880 | -62.46880 | 36921 ft | 558 kts | 56° |
| 2026-05-06 22:31 | 47.87050 | -62.37134 | 36922 ft | 558 kts | 56° |
| 2026-05-06 22:31 | 47.91210 | -62.27376 | 36928 ft | 558 kts | 56° |
| 2026-05-06 22:32 | 47.95367 | -62.17591 | 36923 ft | 558 kts | 56° |
| 2026-05-06 22:32 | 47.99510 | -62.07802 | 36932 ft | 558 kts | 56° |
| 2026-05-06 22:33 | 48.03644 | -61.98000 | 36929 ft | 558 kts | 56° |
| 2026-05-06 22:33 | 48.07771 | -61.88179 | 36937 ft | 557 kts | 56° |
| 2026-05-06 22:34 | 48.11886 | -61.78352 | 36935 ft | 557 kts | 56° |
| 2026-05-06 22:34 | 48.15988 | -61.68517 | 36938 ft | 557 kts | 56° |
| 2026-05-06 22:35 | 48.20080 | -61.58672 | 36935 ft | 556 kts | 56° |
| 2026-05-06 22:35 | 48.24159 | -61.48823 | 36941 ft | 556 kts | 56° |
| 2026-05-06 22:36 | 48.28227 | -61.38964 | 36943 ft | 555 kts | 56° |
| 2026-05-06 22:36 | 48.32251 | -61.29176 | 36948 ft | 554 kts | 56° |
| 2026-05-06 22:37 | 48.36289 | -61.19319 | 36943 ft | 553 kts | 56° |
| 2026-05-06 22:37 | 48.40314 | -61.09455 | 36951 ft | 552 kts | 56° |
| 2026-05-06 22:38 | 48.44321 | -60.99601 | 36946 ft | 552 kts | 56° |
| 2026-05-06 22:38 | 48.48315 | -60.89742 | 36955 ft | 551 kts | 56° |
| 2026-05-06 22:39 | 48.52297 | -60.79876 | 36952 ft | 550 kts | 56° |
| 2026-05-06 22:39 | 48.56264 | -60.70012 | 36965 ft | 550 kts | 56° |
| 2026-05-06 22:40 | 48.60220 | -60.60139 | 36960 ft | 549 kts | 56° |
| 2026-05-06 22:40 | 48.64165 | -60.50257 | 36967 ft | 549 kts | 56° |
| 2026-05-06 22:41 | 48.70061 | -60.35415 | 36973 ft | 549 kts | 56° |
| 2026-05-06 22:42 | 48.73982 | -60.25503 | 36977 ft | 549 kts | 56° |
| 2026-05-06 22:42 | 48.77869 | -60.15636 | 36977 ft | 549 kts | 56° |
| 2026-05-06 22:43 | 48.81796 | -60.05633 | 36978 ft | 548 kts | 56° |
| 2026-05-06 22:43 | 48.85663 | -59.95747 | 36981 ft | 548 kts | 57° |
| 2026-05-06 22:44 | 48.89547 | -59.85776 | 36990 ft | 548 kts | 57° |
| 2026-05-06 22:44 | 48.93417 | -59.75806 | 36988 ft | 548 kts | 57° |
| 2026-05-06 22:45 | 48.97277 | -59.65823 | 36982 ft | 547 kts | 57° |
| 2026-05-06 22:45 | 49.01128 | -59.55827 | 36980 ft | 547 kts | 57° |
| 2026-05-06 22:46 | 49.04964 | -59.45830 | 36988 ft | 546 kts | 57° |
| 2026-05-06 22:46 | 49.08791 | -59.35820 | 36986 ft | 546 kts | 57° |
| 2026-05-06 22:47 | 49.12605 | -59.25807 | 36992 ft | 546 kts | 57° |
| 2026-05-06 22:47 | 49.16410 | -59.15777 | 36989 ft | 545 kts | 57° |
| 2026-05-06 22:48 | 49.20204 | -59.05740 | 36995 ft | 545 kts | 57° |
| 2026-05-06 22:48 | 49.23988 | -58.95691 | 36989 ft | 545 kts | 57° |
| 2026-05-06 22:49 | 49.27762 | -58.85627 | 36998 ft | 545 kts | 57° |
| 2026-05-06 22:49 | 49.31527 | -58.75553 | 36998 ft | 545 kts | 57° |
| 2026-05-06 22:50 | 49.35284 | -58.65458 | 36653 ft | 545 kts | 58° |
| 2026-05-06 22:50 | 49.39028 | -58.55363 | 36899 ft | 544 kts | 58° |
| 2026-05-06 22:51 | 49.42137 | -58.46948 | 36990 ft | 546 kts | 58° |
| 2026-05-06 22:51 | 49.46497 | -58.35102 | 36994 ft | 550 kts | 58° |
| 2026-05-06 22:52 | 49.49644 | -58.26517 | 37008 ft | 551 kts | 58° |
| 2026-05-06 22:52 | 49.53409 | -58.16208 | 37008 ft | 553 kts | 58° |
| 2026-05-06 22:53 | 49.57142 | -58.05947 | 36999 ft | 553 kts | 59° |
| 2026-05-06 22:53 | 49.60891 | -57.95599 | 37000 ft | 552 kts | 59° |
| 2026-05-06 22:54 | 49.64624 | -57.85253 | 37004 ft | 551 kts | 59° |
| 2026-05-06 22:54 | 49.68339 | -57.74918 | 37024 ft | 550 kts | 59° |
| 2026-05-06 22:55 | 49.72033 | -57.64598 | 37031 ft | 547 kts | 59° |
| 2026-05-06 22:55 | 49.75700 | -57.54318 | 37018 ft | 545 kts | 59° |
| 2026-05-06 22:56 | 49.79344 | -57.44058 | 37024 ft | 543 kts | 59° |
| 2026-05-06 22:56 | 49.82968 | -57.33813 | 37006 ft | 542 kts | 59° |
| 2026-05-06 22:57 | 49.86573 | -57.23580 | 37018 ft | 540 kts | 59° |
| 2026-05-06 22:57 | 49.90161 | -57.13357 | 37021 ft | 539 kts | 59° |
| 2026-05-06 22:58 | 49.93733 | -57.03139 | 37029 ft | 538 kts | 59° |
| 2026-05-06 22:58 | 49.97290 | -56.92922 | 37019 ft | 538 kts | 60° |
| 2026-05-06 22:59 | 50.00835 | -56.82699 | 37023 ft | 537 kts | 60° |
| 2026-05-06 22:59 | 50.04368 | -56.72469 | 37025 ft | 537 kts | 60° |
| 2026-05-06 23:00 | 50.07893 | -56.62222 | 37021 ft | 537 kts | 60° |
| 2026-05-06 23:00 | 50.11410 | -56.51958 | 37019 ft | 537 kts | 60° |
| 2026-05-06 23:01 | 50.14914 | -56.41689 | 37029 ft | 537 kts | 60° |
| 2026-05-06 23:01 | 50.18413 | -56.31393 | 37028 ft | 538 kts | 60° |
| 2026-05-06 23:02 | 50.21884 | -56.21138 | 37035 ft | 538 kts | 60° |
| 2026-05-06 23:02 | 50.25371 | -56.10793 | 37035 ft | 538 kts | 60° |
| 2026-05-06 23:03 | 50.28846 | -56.00440 | 37024 ft | 538 kts | 60° |
| 2026-05-06 23:03 | 50.32313 | -55.90071 | 37028 ft | 537 kts | 60° |
| 2026-05-06 23:04 | 50.35764 | -55.79704 | 37030 ft | 537 kts | 60° |
| 2026-05-06 23:04 | 50.39204 | -55.69331 | 37049 ft | 536 kts | 60° |
| 2026-05-06 23:04 | 50.40920 | -55.64138 | 37589 ft | 536 kts | 59° |
| 2026-05-06 23:05 | 50.42639 | -55.58926 | 37342 ft | 541 kts | 59° |
| 2026-05-06 23:05 | 50.44368 | -55.53676 | 37205 ft | 543 kts | 59° |
| 2026-05-06 23:05 | 50.46099 | -55.48407 | 37124 ft | 543 kts | 59° |
| 2026-05-06 23:06 | 50.49543 | -55.37885 | 37049 ft | 540 kts | 59° |
| 2026-05-06 23:06 | 50.52954 | -55.27420 | 37045 ft | 536 kts | 59° |
| 2026-05-06 23:07 | 50.56332 | -55.17015 | 37044 ft | 533 kts | 59° |
| 2026-05-06 23:07 | 50.59680 | -55.06662 | 37056 ft | 530 kts | 59° |
| 2026-05-06 23:08 | 50.62996 | -54.96369 | 37049 ft | 530 kts | 59° |
| 2026-05-06 23:08 | 50.66318 | -54.86012 | 37062 ft | 530 kts | 60° |
| 2026-05-06 23:09 | 50.69639 | -54.75615 | 37057 ft | 531 kts | 60° |
| 2026-05-06 23:09 | 50.72954 | -54.65190 | 37064 ft | 532 kts | 60° |
| 2026-05-06 23:10 | 50.76268 | -54.54727 | 37059 ft | 534 kts | 60° |
| 2026-05-06 23:10 | 50.79582 | -54.44214 | 37066 ft | 535 kts | 60° |
| 2026-05-06 23:11 | 50.82894 | -54.33666 | 37057 ft | 536 kts | 60° |
| 2026-05-06 23:11 | 50.86199 | -54.23095 | 37068 ft | 537 kts | 60° |
| 2026-05-06 23:12 | 50.89505 | -54.12472 | 37063 ft | 538 kts | 60° |
| 2026-05-06 23:12 | 50.92802 | -54.01836 | 37072 ft | 538 kts | 60° |
| 2026-05-06 23:13 | 50.96093 | -53.91171 | 37067 ft | 539 kts | 60° |
| 2026-05-06 23:13 | 50.99375 | -53.80486 | 37076 ft | 539 kts | 60° |
| 2026-05-06 23:14 | 51.02652 | -53.69775 | 37067 ft | 539 kts | 60° |
| 2026-05-06 23:14 | 51.05918 | -53.59048 | 37078 ft | 539 kts | 60° |
| 2026-05-06 23:15 | 51.09151 | -53.48385 | 37070 ft | 539 kts | 61° |
| 2026-05-06 23:15 | 51.12395 | -53.37640 | 37076 ft | 539 kts | 61° |
| 2026-05-06 23:16 | 51.15628 | -53.26884 | 37070 ft | 538 kts | 61° |
| 2026-05-06 23:16 | 51.18785 | -53.16065 | 37078 ft | 538 kts | 63° |
| 2026-05-06 23:17 | 51.21768 | -53.05116 | 37073 ft | 538 kts | 64° |
| 2026-05-06 23:17 | 51.24717 | -52.94157 | 37082 ft | 537 kts | 64° |
| 2026-05-06 23:18 | 51.27678 | -52.83213 | 37075 ft | 537 kts | 64° |
| 2026-05-06 23:18 | 51.30643 | -52.72277 | 37089 ft | 536 kts | 64° |
| 2026-05-06 23:19 | 51.33593 | -52.61353 | 37087 ft | 535 kts | 64° |
| 2026-05-06 23:19 | 51.36532 | -52.50411 | 37093 ft | 535 kts | 64° |
| 2026-05-06 23:20 | 51.39456 | -52.39464 | 37089 ft | 535 kts | 64° |
| 2026-05-06 23:20 | 51.42367 | -52.28515 | 37093 ft | 534 kts | 64° |
| 2026-05-06 23:21 | 51.45268 | -52.17549 | 37091 ft | 534 kts | 65° |
| 2026-05-06 23:21 | 51.48155 | -52.06585 | 37100 ft | 534 kts | 65° |
| 2026-05-06 23:22 | 51.51015 | -51.95675 | 37093 ft | 534 kts | 65° |
| 2026-05-06 23:22 | 51.53883 | -51.84676 | 37100 ft | 534 kts | 65° |
| 2026-05-06 23:23 | 51.56741 | -51.73665 | 37095 ft | 534 kts | 65° |
| 2026-05-06 23:23 | 51.59594 | -51.62619 | 37102 ft | 535 kts | 65° |
| 2026-05-06 23:24 | 51.62435 | -51.51567 | 37095 ft | 535 kts | 65° |
| 2026-05-06 23:24 | 51.65268 | -51.40491 | 37103 ft | 535 kts | 65° |
| 2026-05-06 23:25 | 51.68094 | -51.29387 | 37098 ft | 535 kts | 65° |
| 2026-05-06 23:25 | 51.70908 | -51.18276 | 37107 ft | 536 kts | 65° |
| 2026-05-06 23:26 | 51.73712 | -51.07146 | 37101 ft | 536 kts | 65° |
| 2026-05-06 23:26 | 51.76506 | -50.96002 | 37108 ft | 536 kts | 65° |
| 2026-05-06 23:27 | 51.79292 | -50.84837 | 37101 ft | 536 kts | 66° |
| 2026-05-06 23:27 | 51.82063 | -50.73672 | 37111 ft | 535 kts | 66° |
| 2026-05-06 23:28 | 51.84823 | -50.62497 | 37110 ft | 535 kts | 66° |
| 2026-05-06 23:28 | 51.87571 | -50.51312 | 37114 ft | 535 kts | 66° |
| 2026-05-06 23:29 | 51.90306 | -50.40126 | 37109 ft | 534 kts | 66° |
| 2026-05-06 23:29 | 51.93027 | -50.28938 | 37116 ft | 534 kts | 66° |
| 2026-05-06 23:30 | 51.95739 | -50.17730 | 37105 ft | 533 kts | 66° |
| 2026-05-06 23:30 | 51.98431 | -50.06551 | 36831 ft | 530 kts | 66° |
| 2026-05-06 23:30 | 51.99737 | -50.00983 | 36972 ft | 528 kts | 68° |
| 2026-05-06 23:31 | 52.00785 | -49.95355 | 37048 ft | 528 kts | 74° |
| 2026-05-06 23:31 | 52.02449 | -49.83756 | 37118 ft | 528 kts | 75° |
| 2026-05-06 23:32 | 52.04047 | -49.72090 | 37123 ft | 530 kts | 75° |
| 2026-05-06 23:32 | 52.05673 | -49.60395 | 37125 ft | 531 kts | 75° |
| 2026-05-06 23:33 | 52.07319 | -49.48697 | 37125 ft | 532 kts | 75° |
| 2026-05-06 23:33 | 52.08964 | -49.36973 | 37123 ft | 532 kts | 75° |
| 2026-05-06 23:34 | 52.10598 | -49.25224 | 37123 ft | 532 kts | 75° |
| 2026-05-06 23:34 | 52.12218 | -49.13469 | 37121 ft | 532 kts | 75° |
| 2026-05-06 23:35 | 52.13824 | -49.01711 | 37125 ft | 532 kts | 75° |
| 2026-05-06 23:35 | 52.15418 | -48.89946 | 37126 ft | 532 kts | 75° |
| 2026-05-06 23:36 | 52.16997 | -48.78195 | 37127 ft | 531 kts | 75° |
| 2026-05-06 23:36 | 52.18565 | -48.66439 | 37125 ft | 530 kts | 75° |
| 2026-05-06 23:37 | 52.20117 | -48.54700 | 37129 ft | 530 kts | 75° |
| 2026-05-06 23:37 | 52.21658 | -48.42959 | 37127 ft | 529 kts | 75° |
| 2026-05-06 23:38 | 52.23185 | -48.31220 | 37130 ft | 528 kts | 75° |
| 2026-05-06 23:38 | 52.24697 | -48.19500 | 37135 ft | 528 kts | 75° |
| 2026-05-06 23:39 | 52.26196 | -48.07778 | 37134 ft | 527 kts | 75° |
| 2026-05-06 23:39 | 52.27682 | -47.96068 | 37133 ft | 527 kts | 76° |
| 2026-05-06 23:40 | 52.29155 | -47.84362 | 37134 ft | 526 kts | 76° |
| 2026-05-06 23:40 | 52.30369 | -47.74631 | 37135 ft | 526 kts | 76° |
| 2026-05-06 23:41 | 52.31819 | -47.62921 | 37136 ft | 525 kts | 76° |
| 2026-05-06 23:41 | 52.33255 | -47.51227 | 37139 ft | 525 kts | 76° |
| 2026-05-06 23:42 | 52.34679 | -47.39519 | 37144 ft | 525 kts | 76° |
| 2026-05-06 23:42 | 52.36092 | -47.27806 | 37144 ft | 525 kts | 76° |
| 2026-05-06 23:43 | 52.37493 | -47.16092 | 37145 ft | 524 kts | 76° |
| 2026-05-06 23:43 | 52.38881 | -47.04380 | 37145 ft | 524 kts | 76° |
| 2026-05-06 23:44 | 52.40249 | -46.92729 | 37151 ft | 524 kts | 76° |
| 2026-05-06 23:44 | 52.41614 | -46.81002 | 37148 ft | 524 kts | 76° |
| 2026-05-06 23:45 | 52.42966 | -46.69272 | 37152 ft | 524 kts | 76° |
| 2026-05-06 23:45 | 52.44307 | -46.57539 | 37149 ft | 524 kts | 76° |
| 2026-05-06 23:46 | 52.45635 | -46.45807 | 37155 ft | 523 kts | 76° |
| 2026-05-06 23:46 | 52.46950 | -46.34080 | 37157 ft | 523 kts | 76° |
| 2026-05-06 23:47 | 52.48253 | -46.22350 | 37156 ft | 522 kts | 76° |
| 2026-05-06 23:47 | 52.49545 | -46.10614 | 37161 ft | 522 kts | 76° |
| 2026-05-06 23:48 | 52.50822 | -45.98893 | 37162 ft | 521 kts | 76° |
| 2026-05-06 23:48 | 52.52084 | -45.87198 | 37172 ft | 520 kts | 76° |
| 2026-05-06 23:49 | 52.53333 | -45.75510 | 37169 ft | 519 kts | 76° |
| 2026-05-06 23:49 | 52.54571 | -45.63814 | 37170 ft | 519 kts | 77° |
| 2026-05-06 23:50 | 52.55795 | -45.52140 | 37175 ft | 518 kts | 77° |
| 2026-05-06 23:50 | 52.57605 | -45.34645 | 37177 ft | 517 kts | 77° |
| 2026-05-06 23:51 | 52.58797 | -45.22988 | 37181 ft | 517 kts | 77° |
| 2026-05-06 23:51 | 52.59976 | -45.11332 | 37182 ft | 516 kts | 77° |
| 2026-05-06 23:52 | 52.61134 | -44.99767 | 37184 ft | 516 kts | 77° |
| 2026-05-06 23:52 | 52.62288 | -44.88116 | 37184 ft | 516 kts | 77° |
| 2026-05-06 23:53 | 52.63431 | -44.76462 | 37186 ft | 515 kts | 77° |
| 2026-05-06 23:53 | 52.64562 | -44.64810 | 37191 ft | 515 kts | 77° |
| 2026-05-06 23:54 | 52.65680 | -44.53159 | 37194 ft | 515 kts | 77° |
| 2026-05-06 23:54 | 52.66788 | -44.41499 | 37196 ft | 515 kts | 77° |
| 2026-05-06 23:55 | 52.67883 | -44.29837 | 37200 ft | 515 kts | 77° |
| 2026-05-06 23:55 | 52.68966 | -44.18180 | 37204 ft | 514 kts | 77° |
| 2026-05-06 23:56 | 52.70037 | -44.06526 | 37197 ft | 514 kts | 77° |
| 2026-05-06 23:56 | 52.71095 | -43.94886 | 37207 ft | 513 kts | 77° |
| 2026-05-06 23:57 | 52.72140 | -43.83246 | 37212 ft | 513 kts | 77° |
| 2026-05-06 23:57 | 52.73173 | -43.71622 | 37209 ft | 512 kts | 77° |
| 2026-05-06 23:58 | 52.74193 | -43.60007 | 37206 ft | 511 kts | 77° |
| 2026-05-06 23:58 | 52.75199 | -43.48408 | 37217 ft | 510 kts | 77° |
| 2026-05-06 23:59 | 52.76194 | -43.36810 | 37211 ft | 510 kts | 77° |
| 2026-05-06 23:59 | 52.77176 | -43.25221 | 37216 ft | 509 kts | 77° |
| 2026-05-07 00:00 | 52.78147 | -43.13634 | 37213 ft | 509 kts | 77° |
| 2026-05-07 00:00 | 52.79106 | -43.02046 | 37208 ft | 509 kts | 77° |
| 2026-05-07 00:01 | 52.80055 | -42.90435 | 37219 ft | 510 kts | 77° |
| 2026-05-07 00:01 | 52.80993 | -42.78822 | 37229 ft | 510 kts | 77° |
| 2026-05-07 00:02 | 52.81915 | -42.67254 | 37224 ft | 511 kts | 77° |
| 2026-05-07 00:02 | 52.82833 | -42.55588 | 37222 ft | 512 kts | 77° |
| 2026-05-07 00:03 | 52.83740 | -42.43917 | 37224 ft | 512 kts | 77° |
| 2026-05-07 00:03 | 52.84636 | -42.32218 | 37222 ft | 513 kts | 78° |
| 2026-05-07 00:04 | 52.85521 | -42.20524 | 37226 ft | 513 kts | 78° |
| 2026-05-07 00:04 | 52.86394 | -42.08825 | 37222 ft | 512 kts | 78° |
| 2026-05-07 00:05 | 52.87255 | -41.97135 | 37221 ft | 511 kts | 78° |
| 2026-05-07 00:05 | 52.88103 | -41.85457 | 37220 ft | 510 kts | 78° |
| 2026-05-07 00:06 | 52.88937 | -41.73797 | 37221 ft | 509 kts | 78° |
| 2026-05-07 00:06 | 52.89759 | -41.62157 | 37225 ft | 508 kts | 78° |
| 2026-05-07 00:07 | 52.90566 | -41.50564 | 37228 ft | 506 kts | 78° |
| 2026-05-07 00:07 | 52.91360 | -41.38991 | 37227 ft | 505 kts | 78° |
| 2026-05-07 00:08 | 52.92141 | -41.27439 | 37228 ft | 503 kts | 78° |
| 2026-05-07 00:08 | 52.92908 | -41.15924 | 37225 ft | 502 kts | 78° |
| 2026-05-07 00:09 | 52.93662 | -41.04434 | 37223 ft | 501 kts | 78° |
| 2026-05-07 00:09 | 52.94403 | -40.92979 | 37221 ft | 499 kts | 78° |
| 2026-05-07 00:10 | 52.95131 | -40.81538 | 37222 ft | 499 kts | 78° |
| 2026-05-07 00:10 | 52.95848 | -40.70100 | 37226 ft | 498 kts | 78° |
| 2026-05-07 00:11 | 52.96554 | -40.58665 | 37224 ft | 499 kts | 79° |
| 2026-05-07 00:11 | 52.97251 | -40.47207 | 37231 ft | 499 kts | 79° |
| 2026-05-07 00:12 | 52.97935 | -40.35750 | 37229 ft | 500 kts | 79° |
| 2026-05-07 00:12 | 52.98611 | -40.24252 | 37226 ft | 501 kts | 79° |
| 2026-05-07 00:13 | 52.99274 | -40.12796 | 37228 ft | 502 kts | 79° |
| 2026-05-07 00:13 | 52.99962 | -40.01166 | 37232 ft | 502 kts | 77° |
| 2026-05-07 00:14 | 53.01348 | -39.89873 | 37234 ft | 498 kts | 71° |
| 2026-05-07 00:14 | 53.03007 | -39.78697 | 37232 ft | 499 kts | 71° |
| 2026-05-07 00:15 | 53.04654 | -39.67474 | 37237 ft | 501 kts | 71° |
| 2026-05-07 00:15 | 53.06253 | -39.56264 | 37231 ft | 502 kts | 72° |
| 2026-05-07 00:16 | 53.07839 | -39.44957 | 37234 ft | 503 kts | 72° |
| 2026-05-07 00:16 | 53.09414 | -39.33624 | 37223 ft | 503 kts | 72° |
| 2026-05-07 00:17 | 53.10981 | -39.22278 | 37218 ft | 503 kts | 72° |
| 2026-05-07 00:17 | 53.12539 | -39.10918 | 37220 ft | 503 kts | 72° |
| 2026-05-07 00:18 | 53.14086 | -38.99553 | 37221 ft | 503 kts | 72° |
| 2026-05-07 00:18 | 53.15624 | -38.88173 | 37219 ft | 503 kts | 72° |
| 2026-05-07 00:19 | 53.17150 | -38.76793 | 37219 ft | 503 kts | 72° |
| 2026-05-07 00:19 | 53.18665 | -38.65406 | 37213 ft | 503 kts | 72° |
| 2026-05-07 00:20 | 53.20168 | -38.54014 | 37213 ft | 503 kts | 72° |
| 2026-05-07 00:20 | 53.21658 | -38.42626 | 37212 ft | 503 kts | 72° |
| 2026-05-07 00:21 | 53.23138 | -38.31226 | 37213 ft | 502 kts | 73° |
| 2026-05-07 00:21 | 53.24606 | -38.19828 | 37211 ft | 502 kts | 73° |
| 2026-05-07 00:22 | 53.26061 | -38.08438 | 37208 ft | 502 kts | 73° |
| 2026-05-07 00:22 | 53.27497 | -37.97109 | 37210 ft | 501 kts | 73° |
| 2026-05-07 00:23 | 53.28929 | -37.85714 | 37205 ft | 501 kts | 73° |
| 2026-05-07 00:23 | 53.30349 | -37.74322 | 37203 ft | 500 kts | 73° |
| 2026-05-07 00:24 | 53.31757 | -37.62930 | 37201 ft | 500 kts | 73° |
| 2026-05-07 00:24 | 53.33155 | -37.51533 | 37198 ft | 500 kts | 73° |
| 2026-05-07 00:25 | 53.34540 | -37.40139 | 37204 ft | 500 kts | 73° |
| 2026-05-07 00:25 | 53.35682 | -37.30674 | 37202 ft | 499 kts | 73° |
| 2026-05-07 00:26 | 53.37276 | -37.17345 | 37202 ft | 499 kts | 73° |
| 2026-05-07 00:26 | 53.38399 | -37.07873 | 37198 ft | 499 kts | 73° |
| 2026-05-07 00:27 | 53.39742 | -36.96452 | 37197 ft | 499 kts | 73° |
| 2026-05-07 00:27 | 53.41072 | -36.85042 | 37197 ft | 499 kts | 73° |
| 2026-05-07 00:28 | 53.42392 | -36.73623 | 37196 ft | 499 kts | 74° |
| 2026-05-07 00:28 | 53.43700 | -36.62205 | 37186 ft | 498 kts | 74° |
| 2026-05-07 00:29 | 53.44996 | -36.50788 | 37197 ft | 498 kts | 74° |
| 2026-05-07 00:30 | 53.47554 | -36.27941 | 37192 ft | 498 kts | 74° |
| 2026-05-07 00:30 | 53.48816 | -36.16515 | 37185 ft | 498 kts | 74° |
| 2026-05-07 00:31 | 53.50066 | -36.05093 | 37184 ft | 497 kts | 75° |
| 2026-05-07 00:31 | 53.51298 | -35.93739 | 37186 ft | 497 kts | 75° |
| 2026-05-07 00:32 | 53.52526 | -35.82304 | 37182 ft | 497 kts | 75° |
| 2026-05-07 00:32 | 53.53743 | -35.70864 | 37177 ft | 497 kts | 75° |
| 2026-05-07 00:33 | 53.54950 | -35.59416 | 37178 ft | 497 kts | 75° |
| 2026-05-07 00:33 | 53.56145 | -35.47964 | 37174 ft | 497 kts | 75° |
| 2026-05-07 00:34 | 53.57330 | -35.36500 | 37177 ft | 497 kts | 75° |
| 2026-05-07 00:34 | 53.58502 | -35.25041 | 37176 ft | 497 kts | 75° |
| 2026-05-07 00:35 | 53.59665 | -35.13566 | 37174 ft | 497 kts | 75° |
| 2026-05-07 00:35 | 53.60817 | -35.02086 | 37173 ft | 497 kts | 76° |
| 2026-05-07 00:36 | 53.61957 | -34.90604 | 37169 ft | 497 kts | 76° |
| 2026-05-07 00:36 | 53.63086 | -34.79118 | 37157 ft | 497 kts | 76° |
| 2026-05-07 00:37 | 53.64198 | -34.67692 | 37165 ft | 497 kts | 76° |
| 2026-05-07 00:37 | 53.65305 | -34.56189 | 37166 ft | 497 kts | 76° |
| 2026-05-07 00:38 | 53.66401 | -34.44686 | 37162 ft | 497 kts | 76° |
| 2026-05-07 00:38 | 53.67487 | -34.33167 | 37163 ft | 497 kts | 76° |
| 2026-05-07 00:39 | 53.68563 | -34.21631 | 37162 ft | 498 kts | 76° |
| 2026-05-07 00:39 | 53.69628 | -34.10085 | 37160 ft | 498 kts | 76° |
| 2026-05-07 00:40 | 53.70682 | -33.98529 | 37157 ft | 498 kts | 77° |
| 2026-05-07 00:40 | 53.71726 | -33.86965 | 37156 ft | 498 kts | 77° |
| 2026-05-07 00:41 | 53.72759 | -33.75389 | 37157 ft | 499 kts | 77° |
| 2026-05-07 00:41 | 53.73781 | -33.63804 | 37156 ft | 499 kts | 77° |
| 2026-05-07 00:42 | 53.74792 | -33.52212 | 37147 ft | 499 kts | 77° |
| 2026-05-07 00:42 | 53.75791 | -33.40613 | 37153 ft | 499 kts | 77° |
| 2026-05-07 00:43 | 53.76781 | -33.28995 | 37149 ft | 499 kts | 77° |
| 2026-05-07 00:43 | 53.77759 | -33.17377 | 37145 ft | 499 kts | 77° |
| 2026-05-07 00:44 | 53.78728 | -33.05733 | 37144 ft | 500 kts | 77° |
| 2026-05-07 00:44 | 53.79678 | -32.94175 | 37142 ft | 500 kts | 78° |
| 2026-05-07 00:45 | 53.80623 | -32.82534 | 37137 ft | 500 kts | 78° |
| 2026-05-07 00:45 | 53.81558 | -32.70866 | 37141 ft | 500 kts | 78° |
| 2026-05-07 00:46 | 53.82482 | -32.59198 | 37140 ft | 500 kts | 78° |
| 2026-05-07 00:46 | 53.83395 | -32.47513 | 37133 ft | 501 kts | 78° |
| 2026-05-07 00:47 | 53.84298 | -32.35821 | 37135 ft | 501 kts | 78° |
| 2026-05-07 00:47 | 53.85189 | -32.24118 | 37130 ft | 501 kts | 78° |
| 2026-05-07 00:48 | 53.86069 | -32.12406 | 37130 ft | 501 kts | 78° |
| 2026-05-07 00:48 | 53.86939 | -32.00673 | 37129 ft | 502 kts | 79° |
| 2026-05-07 00:49 | 53.87797 | -31.88946 | 37127 ft | 502 kts | 79° |
| 2026-05-07 00:49 | 53.88644 | -31.77198 | 37128 ft | 502 kts | 79° |
| 2026-05-07 00:50 | 53.89481 | -31.65433 | 37125 ft | 503 kts | 79° |
| 2026-05-07 00:50 | 53.90307 | -31.53660 | 37126 ft | 503 kts | 79° |
| 2026-05-07 00:51 | 53.91121 | -31.41880 | 37122 ft | 503 kts | 79° |
| 2026-05-07 00:51 | 53.91924 | -31.30084 | 37119 ft | 504 kts | 79° |
| 2026-05-07 00:52 | 53.92716 | -31.18282 | 37121 ft | 504 kts | 80° |
| 2026-05-07 00:52 | 53.93497 | -31.06459 | 37121 ft | 504 kts | 80° |
| 2026-05-07 00:53 | 53.94267 | -30.94630 | 37118 ft | 504 kts | 80° |
| 2026-05-07 00:53 | 53.95026 | -30.82786 | 37118 ft | 505 kts | 80° |
| 2026-05-07 00:54 | 53.95773 | -30.70939 | 37119 ft | 505 kts | 80° |
| 2026-05-07 00:54 | 53.96504 | -30.59161 | 37112 ft | 505 kts | 81° |
| 2026-05-07 00:55 | 53.97229 | -30.47290 | 37116 ft | 505 kts | 81° |
| 2026-05-07 00:55 | 53.97942 | -30.35422 | 37115 ft | 505 kts | 81° |
| 2026-05-07 00:56 | 53.98645 | -30.23531 | 37110 ft | 506 kts | 81° |
| 2026-05-07 00:56 | 53.99336 | -30.11632 | 37108 ft | 506 kts | 81° |
| 2026-05-07 00:57 | 54.00017 | -29.99726 | 37109 ft | 506 kts | 81° |
| 2026-05-07 00:57 | 54.00565 | -29.87785 | 37117 ft | 507 kts | 83° |
| 2026-05-07 00:58 | 54.01011 | -29.75812 | 37107 ft | 508 kts | 83° |
| 2026-05-07 00:58 | 54.01452 | -29.63823 | 37101 ft | 508 kts | 83° |
| 2026-05-07 00:59 | 54.02125 | -29.45836 | 37101 ft | 508 kts | 83° |
| 2026-05-07 01:00 | 54.02566 | -29.33834 | 37109 ft | 509 kts | 83° |
| 2026-05-07 01:00 | 54.02994 | -29.21820 | 37105 ft | 509 kts | 83° |
| 2026-05-07 01:01 | 54.03410 | -29.09801 | 37098 ft | 509 kts | 84° |
| 2026-05-07 01:01 | 54.03813 | -28.97774 | 37106 ft | 509 kts | 84° |
| 2026-05-07 01:02 | 54.04205 | -28.85740 | 37107 ft | 510 kts | 84° |
| 2026-05-07 01:02 | 54.04585 | -28.73687 | 37100 ft | 510 kts | 84° |
| 2026-05-07 01:03 | 54.04953 | -28.61638 | 37096 ft | 510 kts | 84° |
| 2026-05-07 01:03 | 54.05310 | -28.49571 | 37096 ft | 511 kts | 84° |
| 2026-05-07 01:04 | 54.05654 | -28.37502 | 37093 ft | 511 kts | 84° |
| 2026-05-07 01:04 | 54.05987 | -28.25417 | 37092 ft | 511 kts | 85° |
| 2026-05-07 01:05 | 54.06307 | -28.13333 | 37093 ft | 511 kts | 85° |
| 2026-05-07 01:05 | 54.06615 | -28.01240 | 37092 ft | 512 kts | 85° |
| 2026-05-07 01:06 | 54.06911 | -27.89204 | 37097 ft | 512 kts | 85° |
| 2026-05-07 01:06 | 54.07195 | -27.77092 | 37086 ft | 512 kts | 85° |
| 2026-05-07 01:07 | 54.07468 | -27.64969 | 37089 ft | 513 kts | 85° |
| 2026-05-07 01:07 | 54.07729 | -27.52832 | 37088 ft | 513 kts | 85° |
| 2026-05-07 01:08 | 54.07978 | -27.40686 | 37086 ft | 513 kts | 86° |
| 2026-05-07 01:08 | 54.08214 | -27.28534 | 37086 ft | 514 kts | 86° |
| 2026-05-07 01:09 | 54.08438 | -27.16359 | 37082 ft | 514 kts | 86° |
| 2026-05-07 01:09 | 54.08650 | -27.04189 | 37089 ft | 514 kts | 86° |
| 2026-05-07 01:10 | 54.08851 | -26.92000 | 37082 ft | 515 kts | 86° |
| 2026-05-07 01:10 | 54.09039 | -26.79806 | 37075 ft | 515 kts | 86° |
| 2026-05-07 01:11 | 54.09215 | -26.67604 | 37072 ft | 516 kts | 87° |
| 2026-05-07 01:11 | 54.09378 | -26.55385 | 37074 ft | 516 kts | 87° |
| 2026-05-07 01:12 | 54.09529 | -26.43150 | 37069 ft | 517 kts | 87° |
| 2026-05-07 01:12 | 54.09669 | -26.30902 | 37069 ft | 517 kts | 87° |
| 2026-05-07 01:13 | 54.09795 | -26.18643 | 37074 ft | 518 kts | 88° |
| 2026-05-07 01:13 | 54.09910 | -26.06359 | 37069 ft | 518 kts | 88° |
| 2026-05-07 01:14 | 54.10012 | -25.94080 | 37070 ft | 519 kts | 88° |
| 2026-05-07 01:14 | 54.10088 | -25.83869 | 37065 ft | 519 kts | 88° |
| 2026-05-07 01:15 | 54.10178 | -25.69568 | 37061 ft | 519 kts | 88° |
| 2026-05-07 01:15 | 54.10243 | -25.57261 | 37062 ft | 520 kts | 88° |
| 2026-05-07 01:16 | 54.10288 | -25.46933 | 37057 ft | 520 kts | 88° |
| 2026-05-07 01:16 | 54.10330 | -25.34602 | 37059 ft | 521 kts | 89° |
| 2026-05-07 01:17 | 54.10359 | -25.22256 | 37056 ft | 521 kts | 89° |
| 2026-05-07 01:17 | 54.10375 | -25.09998 | 37052 ft | 521 kts | 89° |
| 2026-05-07 01:18 | 54.10379 | -24.97650 | 37053 ft | 522 kts | 89° |
| 2026-05-07 01:18 | 54.10370 | -24.85281 | 37051 ft | 522 kts | 89° |
| 2026-05-07 01:19 | 54.10349 | -24.72907 | 37049 ft | 522 kts | 89° |
| 2026-05-07 01:19 | 54.10314 | -24.60523 | 37047 ft | 522 kts | 89° |
| 2026-05-07 01:20 | 54.10268 | -24.48138 | 37046 ft | 523 kts | 90° |
| 2026-05-07 01:20 | 54.10208 | -24.35752 | 37039 ft | 523 kts | 90° |
| 2026-05-07 01:21 | 54.10136 | -24.23365 | 37042 ft | 523 kts | 90° |
| 2026-05-07 01:21 | 54.10051 | -24.10986 | 37034 ft | 523 kts | 90° |
| 2026-05-07 01:22 | 54.09953 | -23.98582 | 37036 ft | 523 kts | 90° |
| 2026-05-07 01:22 | 54.09842 | -23.86194 | 37031 ft | 523 kts | 90° |
| 2026-05-07 01:23 | 54.09719 | -23.73808 | 37034 ft | 523 kts | 91° |
| 2026-05-07 01:23 | 54.09583 | -23.61408 | 37030 ft | 523 kts | 91° |
| 2026-05-07 01:24 | 54.09434 | -23.49022 | 37025 ft | 523 kts | 91° |
| 2026-05-07 01:24 | 54.09273 | -23.36622 | 37027 ft | 523 kts | 91° |
| 2026-05-07 01:25 | 54.09098 | -23.24234 | 37023 ft | 523 kts | 91° |
| 2026-05-07 01:25 | 54.08913 | -23.11920 | 37021 ft | 523 kts | 91° |
| 2026-05-07 01:26 | 54.08713 | -22.99517 | 37020 ft | 524 kts | 91° |
| 2026-05-07 01:26 | 54.08500 | -22.87120 | 37017 ft | 524 kts | 92° |
| 2026-05-07 01:27 | 54.08275 | -22.74713 | 37017 ft | 524 kts | 92° |
| 2026-05-07 01:27 | 54.08036 | -22.62311 | 37013 ft | 524 kts | 92° |
| 2026-05-07 01:28 | 54.07786 | -22.49910 | 37011 ft | 524 kts | 92° |
| 2026-05-07 01:28 | 54.07522 | -22.37499 | 37007 ft | 524 kts | 92° |
| 2026-05-07 01:29 | 54.07245 | -22.25091 | 37005 ft | 525 kts | 92° |
| 2026-05-07 01:29 | 54.06955 | -22.12672 | 37005 ft | 525 kts | 92° |
| 2026-05-07 01:30 | 54.06653 | -22.00255 | 37001 ft | 525 kts | 93° |
| 2026-05-07 01:30 | 54.06337 | -21.87829 | 36999 ft | 525 kts | 93° |
| 2026-05-07 01:31 | 54.06009 | -21.75400 | 37000 ft | 526 kts | 93° |
| 2026-05-07 01:31 | 54.05667 | -21.62973 | 36995 ft | 526 kts | 93° |
| 2026-05-07 01:32 | 54.05313 | -21.50540 | 36995 ft | 526 kts | 93° |
| 2026-05-07 01:32 | 54.04946 | -21.38102 | 36989 ft | 526 kts | 94° |
| 2026-05-07 01:33 | 54.04568 | -21.25742 | 36986 ft | 526 kts | 94° |
| 2026-05-07 01:33 | 54.04175 | -21.13311 | 36987 ft | 527 kts | 94° |
| 2026-05-07 01:34 | 54.03769 | -21.00863 | 36984 ft | 527 kts | 94° |
| 2026-05-07 01:34 | 54.03350 | -20.88427 | 36981 ft | 527 kts | 94° |
| 2026-05-07 01:35 | 54.02918 | -20.75980 | 36978 ft | 527 kts | 94° |
| 2026-05-07 01:35 | 54.02473 | -20.63531 | 36976 ft | 527 kts | 94° |
| 2026-05-07 01:36 | 54.02015 | -20.51099 | 36977 ft | 527 kts | 95° |
| 2026-05-07 01:36 | 54.01545 | -20.38664 | 36971 ft | 527 kts | 95° |
| 2026-05-07 01:37 | 54.01061 | -20.26223 | 36968 ft | 527 kts | 95° |
| 2026-05-07 01:37 | 54.00566 | -20.13783 | 36966 ft | 527 kts | 95° |
| 2026-05-07 01:38 | 53.99935 | -20.01380 | 36966 ft | 526 kts | 100° |
| 2026-05-07 01:38 | 53.98251 | -19.89325 | 36965 ft | 523 kts | 109° |
| 2026-05-07 01:39 | 53.96098 | -19.77521 | 36961 ft | 523 kts | 109° |
| 2026-05-07 01:39 | 53.93957 | -19.65794 | 36957 ft | 523 kts | 109° |
| 2026-05-07 01:40 | 53.91831 | -19.53988 | 36953 ft | 523 kts | 109° |
| 2026-05-07 01:40 | 53.89712 | -19.42190 | 36953 ft | 523 kts | 109° |
| 2026-05-07 01:41 | 53.87582 | -19.30401 | 36951 ft | 522 kts | 109° |
| 2026-05-07 01:41 | 53.85443 | -19.18649 | 36947 ft | 522 kts | 109° |
| 2026-05-07 01:42 | 53.83292 | -19.06923 | 36949 ft | 521 kts | 109° |
| 2026-05-07 01:42 | 53.81131 | -18.95212 | 36946 ft | 521 kts | 110° |
| 2026-05-07 01:43 | 53.78963 | -18.83539 | 36944 ft | 520 kts | 110° |
| 2026-05-07 01:43 | 53.76785 | -18.71887 | 36944 ft | 520 kts | 110° |
| 2026-05-07 01:44 | 53.74599 | -18.60258 | 36943 ft | 519 kts | 110° |
| 2026-05-07 01:44 | 53.72402 | -18.48646 | 36940 ft | 519 kts | 110° |
| 2026-05-07 01:45 | 53.70196 | -18.37060 | 36943 ft | 518 kts | 110° |
| 2026-05-07 01:45 | 53.67981 | -18.25494 | 36940 ft | 518 kts | 110° |
| 2026-05-07 01:46 | 53.65759 | -18.13963 | 36939 ft | 517 kts | 111° |
| 2026-05-07 01:46 | 53.63525 | -18.02437 | 36934 ft | 517 kts | 111° |
| 2026-05-07 01:47 | 53.61284 | -17.90950 | 36933 ft | 516 kts | 111° |
| 2026-05-07 01:47 | 53.59033 | -17.79473 | 36935 ft | 516 kts | 111° |
| 2026-05-07 01:48 | 53.56775 | -17.68032 | 36929 ft | 515 kts | 111° |
| 2026-05-07 01:48 | 53.54506 | -17.56603 | 36927 ft | 515 kts | 111° |
| 2026-05-07 01:49 | 53.52230 | -17.45205 | 36926 ft | 514 kts | 111° |
| 2026-05-07 01:49 | 53.49946 | -17.33834 | 36925 ft | 513 kts | 112° |
| 2026-05-07 01:50 | 53.47655 | -17.22490 | 36934 ft | 513 kts | 112° |
| 2026-05-07 01:50 | 53.45355 | -17.11173 | 36929 ft | 512 kts | 112° |
| 2026-05-07 01:51 | 53.43045 | -16.99868 | 36915 ft | 512 kts | 112° |
| 2026-05-07 01:51 | 53.40729 | -16.88598 | 36910 ft | 511 kts | 112° |
| 2026-05-07 01:52 | 53.38405 | -16.77353 | 36927 ft | 510 kts | 112° |
| 2026-05-07 01:52 | 53.36074 | -16.66137 | 36920 ft | 510 kts | 112° |
| 2026-05-07 01:53 | 53.33733 | -16.54938 | 36916 ft | 509 kts | 112° |
| 2026-05-07 01:53 | 53.31386 | -16.43771 | 36920 ft | 509 kts | 112° |
| 2026-05-07 01:54 | 53.29047 | -16.32703 | 36925 ft | 508 kts | 112° |
| 2026-05-07 01:54 | 53.26681 | -16.21569 | 36923 ft | 508 kts | 112° |
| 2026-05-07 01:55 | 53.24307 | -16.10460 | 36919 ft | 508 kts | 113° |
| 2026-05-07 01:55 | 53.21925 | -15.99371 | 36923 ft | 507 kts | 113° |
| 2026-05-07 01:56 | 53.19533 | -15.88296 | 36923 ft | 507 kts | 113° |
| 2026-05-07 01:56 | 53.17131 | -15.77237 | 36924 ft | 507 kts | 113° |
| 2026-05-07 01:57 | 53.14719 | -15.66189 | 36922 ft | 507 kts | 113° |
| 2026-05-07 01:57 | 53.12300 | -15.55165 | 36924 ft | 507 kts | 113° |
| 2026-05-07 01:58 | 53.09869 | -15.44150 | 36922 ft | 507 kts | 113° |
| 2026-05-07 01:58 | 53.07428 | -15.33144 | 36926 ft | 507 kts | 113° |
| 2026-05-07 01:59 | 53.04980 | -15.22161 | 36923 ft | 507 kts | 113° |
| 2026-05-07 01:59 | 53.02521 | -15.11184 | 36927 ft | 506 kts | 113° |
| 2026-05-07 02:00 | 53.00574 | -14.99929 | 36933 ft | 510 kts | 102° |
| 2026-05-07 02:00 | 52.99904 | -14.88190 | 36926 ft | 513 kts | 92° |
| 2026-05-07 02:01 | 52.99962 | -14.78335 | 36929 ft | 514 kts | 91° |
| 2026-05-07 02:01 | 53.00062 | -14.66477 | 36922 ft | 514 kts | 91° |
| 2026-05-07 02:02 | 53.00102 | -14.52698 | 36934 ft | 513 kts | 92° |
| 2026-05-07 02:02 | 53.00098 | -14.42846 | 36925 ft | 513 kts | 92° |
| 2026-05-07 02:03 | 53.00083 | -14.31004 | 36917 ft | 513 kts | 92° |
| 2026-05-07 02:03 | 53.00061 | -14.19171 | 36927 ft | 513 kts | 92° |
| 2026-05-07 02:04 | 53.00029 | -14.07338 | 36925 ft | 512 kts | 92° |
| 2026-05-07 02:04 | 52.99824 | -13.95530 | 36922 ft | 510 kts | 96° |
| 2026-05-07 02:05 | 52.99168 | -13.83800 | 36932 ft | 510 kts | 97° |
| 2026-05-07 02:05 | 52.98454 | -13.72099 | 36927 ft | 510 kts | 97° |
| 2026-05-07 02:06 | 52.97753 | -13.60395 | 36930 ft | 510 kts | 97° |
| 2026-05-07 02:06 | 52.97062 | -13.48688 | 36934 ft | 509 kts | 97° |
| 2026-05-07 02:07 | 52.96366 | -13.37002 | 36927 ft | 509 kts | 97° |
| 2026-05-07 02:07 | 52.95299 | -13.19476 | 36921 ft | 509 kts | 97° |
| 2026-05-07 02:08 | 52.94572 | -13.07813 | 36932 ft | 508 kts | 97° |
| 2026-05-07 02:08 | 52.93835 | -12.96162 | 36932 ft | 508 kts | 97° |
| 2026-05-07 02:09 | 52.93086 | -12.84516 | 36943 ft | 508 kts | 97° |
| 2026-05-07 02:09 | 52.92327 | -12.72889 | 36925 ft | 507 kts | 97° |
| 2026-05-07 02:10 | 52.91558 | -12.61281 | 36927 ft | 506 kts | 98° |
| 2026-05-07 02:10 | 52.90783 | -12.49766 | 36942 ft | 506 kts | 98° |
| 2026-05-07 02:11 | 52.89988 | -12.38115 | 36941 ft | 505 kts | 98° |
| 2026-05-07 02:11 | 52.89187 | -12.26554 | 36944 ft | 505 kts | 98° |
| 2026-05-07 02:12 | 52.88382 | -12.15093 | 36943 ft | 504 kts | 98° |
| 2026-05-07 02:12 | 52.87560 | -12.03559 | 36937 ft | 504 kts | 98° |
| 2026-05-07 02:13 | 52.86728 | -11.92045 | 36929 ft | 504 kts | 98° |
| 2026-05-07 02:13 | 52.85885 | -11.80541 | 36942 ft | 503 kts | 98° |
| 2026-05-07 02:14 | 52.85026 | -11.68974 | 36948 ft | 503 kts | 98° |
| 2026-05-07 02:14 | 52.84168 | -11.57564 | 36945 ft | 503 kts | 98° |
| 2026-05-07 02:15 | 52.83294 | -11.46095 | 36944 ft | 503 kts | 98° |
| 2026-05-07 02:15 | 52.82409 | -11.34635 | 36945 ft | 502 kts | 98° |
| 2026-05-07 02:16 | 52.81514 | -11.23187 | 36945 ft | 502 kts | 98° |
| 2026-05-07 02:16 | 52.80607 | -11.11746 | 36947 ft | 502 kts | 98° |
| 2026-05-07 02:17 | 52.79690 | -11.00313 | 36949 ft | 502 kts | 98° |
| 2026-05-07 02:17 | 52.78763 | -10.88895 | 36952 ft | 501 kts | 98° |
| 2026-05-07 02:18 | 52.77825 | -10.77482 | 36954 ft | 501 kts | 99° |
| 2026-05-07 02:18 | 52.76876 | -10.66076 | 36955 ft | 501 kts | 99° |
| 2026-05-07 02:19 | 52.75917 | -10.54683 | 36953 ft | 501 kts | 99° |
| 2026-05-07 02:19 | 52.74947 | -10.43306 | 36955 ft | 501 kts | 99° |
| 2026-05-07 02:20 | 52.73968 | -10.31934 | 36956 ft | 501 kts | 99° |
| 2026-05-07 02:20 | 52.72983 | -10.20640 | 36955 ft | 500 kts | 99° |
| 2026-05-07 02:21 | 52.71981 | -10.09274 | 36958 ft | 500 kts | 99° |
| 2026-05-07 02:21 | 52.70970 | -9.97924 | 36961 ft | 500 kts | 99° |
| 2026-05-07 02:22 | 52.69948 | -9.86589 | 36961 ft | 500 kts | 99° |
| 2026-05-07 02:22 | 52.68915 | -9.75261 | 36964 ft | 499 kts | 99° |
| 2026-05-07 02:23 | 52.67873 | -9.63955 | 36966 ft | 499 kts | 99° |
| 2026-05-07 02:23 | 52.66822 | -9.52663 | 36966 ft | 499 kts | 99° |
| 2026-05-07 02:24 | 52.65759 | -9.41376 | 36967 ft | 498 kts | 99° |
| 2026-05-07 02:24 | 52.64687 | -9.30111 | 36967 ft | 498 kts | 99° |
| 2026-05-07 02:25 | 52.63606 | -9.18859 | 36970 ft | 497 kts | 99° |
| 2026-05-07 02:25 | 52.62514 | -9.07621 | 36966 ft | 497 kts | 99° |
| 2026-05-07 02:26 | 52.61412 | -8.96386 | 36967 ft | 497 kts | 99° |
| 2026-05-07 02:26 | 52.60301 | -8.85171 | 36968 ft | 497 kts | 99° |
| 2026-05-07 02:27 | 52.59187 | -8.74043 | 36969 ft | 497 kts | 99° |
| 2026-05-07 02:27 | 52.58053 | -8.62831 | 36973 ft | 496 kts | 99° |
| 2026-05-07 02:28 | 52.56912 | -8.51649 | 36975 ft | 496 kts | 100° |
| 2026-05-07 02:28 | 52.55759 | -8.40468 | 36977 ft | 496 kts | 100° |
| 2026-05-07 02:29 | 52.54596 | -8.29293 | 36977 ft | 496 kts | 100° |
| 2026-05-07 02:29 | 52.53424 | -8.18138 | 36983 ft | 496 kts | 100° |
| 2026-05-07 02:30 | 52.52241 | -8.06986 | 36977 ft | 495 kts | 100° |
| 2026-05-07 02:30 | 52.51049 | -7.95853 | 36979 ft | 495 kts | 100° |
| 2026-05-07 02:31 | 52.49847 | -7.84730 | 36979 ft | 495 kts | 100° |
| 2026-05-07 02:31 | 52.48635 | -7.73622 | 36973 ft | 495 kts | 100° |
| 2026-05-07 02:32 | 52.47413 | -7.62513 | 36973 ft | 495 kts | 100° |
| 2026-05-07 02:32 | 52.46180 | -7.51415 | 36977 ft | 495 kts | 100° |
| 2026-05-07 02:33 | 52.44937 | -7.40319 | 36977 ft | 494 kts | 100° |
| 2026-05-07 02:33 | 52.43685 | -7.29244 | 36976 ft | 494 kts | 100° |
| 2026-05-07 02:34 | 52.42430 | -7.18246 | 36976 ft | 494 kts | 100° |
| 2026-05-07 02:34 | 52.41157 | -7.07179 | 36977 ft | 494 kts | 101° |
| 2026-05-07 02:35 | 52.39874 | -6.96116 | 36980 ft | 494 kts | 101° |
| 2026-05-07 02:35 | 52.38581 | -6.85071 | 36981 ft | 494 kts | 101° |
| 2026-05-07 02:36 | 52.37285 | -6.74095 | 36983 ft | 494 kts | 101° |
| 2026-05-07 02:36 | 52.35971 | -6.63056 | 36982 ft | 494 kts | 101° |
| 2026-05-07 02:37 | 52.34648 | -6.52029 | 36981 ft | 494 kts | 101° |
| 2026-05-07 02:37 | 52.33314 | -6.41015 | 36982 ft | 494 kts | 101° |
| 2026-05-07 02:38 | 52.31970 | -6.29995 | 36984 ft | 494 kts | 101° |
| 2026-05-07 02:38 | 52.30615 | -6.18988 | 36985 ft | 494 kts | 101° |
| 2026-05-07 02:39 | 52.29262 | -6.08075 | 36986 ft | 494 kts | 101° |
| 2026-05-07 02:39 | 52.27888 | -5.97088 | 36988 ft | 494 kts | 101° |
| 2026-05-07 02:40 | 52.26495 | -5.86036 | 36993 ft | 493 kts | 101° |
| 2026-05-07 02:40 | 52.25113 | -5.75145 | 36994 ft | 493 kts | 101° |
| 2026-05-07 02:41 | 52.23725 | -5.64189 | 36999 ft | 493 kts | 101° |
| 2026-05-07 02:41 | 52.22427 | -5.53201 | 36998 ft | 493 kts | 100° |
| 2026-05-07 02:42 | 52.21152 | -5.42209 | 36996 ft | 493 kts | 100° |
| 2026-05-07 02:42 | 52.19857 | -5.31235 | 36997 ft | 493 kts | 101° |
| 2026-05-07 02:43 | 52.18541 | -5.20262 | 36997 ft | 493 kts | 101° |
| 2026-05-07 02:43 | 52.17213 | -5.09307 | 37000 ft | 493 kts | 101° |
| 2026-05-07 02:44 | 52.15874 | -4.98352 | 37001 ft | 493 kts | 101° |
| 2026-05-07 02:44 | 52.14526 | -4.87411 | 37001 ft | 493 kts | 101° |
| 2026-05-07 02:45 | 52.13170 | -4.76486 | 37005 ft | 492 kts | 101° |
| 2026-05-07 02:45 | 52.11801 | -4.65550 | 37006 ft | 492 kts | 101° |
| 2026-05-07 02:46 | 52.10425 | -4.54642 | 37004 ft | 493 kts | 101° |
| 2026-05-07 02:46 | 52.09037 | -4.43730 | 37009 ft | 493 kts | 101° |
| 2026-05-07 02:47 | 52.07640 | -4.32827 | 37014 ft | 493 kts | 101° |
| 2026-05-07 02:47 | 52.06241 | -4.21995 | 37010 ft | 493 kts | 101° |
| 2026-05-07 02:48 | 52.04822 | -4.11095 | 37018 ft | 493 kts | 101° |
| 2026-05-07 02:48 | 52.03393 | -4.00195 | 37025 ft | 493 kts | 101° |
| 2026-05-07 02:49 | 52.01953 | -3.89310 | 37021 ft | 494 kts | 102° |
| 2026-05-07 02:49 | 52.00503 | -3.78419 | 37012 ft | 494 kts | 102° |
| 2026-05-07 02:50 | 51.99042 | -3.67529 | 37037 ft | 494 kts | 102° |
| 2026-05-07 02:50 | 51.97570 | -3.56643 | 37042 ft | 494 kts | 102° |
| 2026-05-07 02:51 | 51.96339 | -3.47594 | 37031 ft | 494 kts | 102° |
| 2026-05-07 02:51 | 51.94846 | -3.36701 | 37033 ft | 495 kts | 102° |
| 2026-05-07 02:52 | 51.93343 | -3.25818 | 37056 ft | 495 kts | 102° |
| 2026-05-07 02:52 | 51.91828 | -3.14928 | 37067 ft | 496 kts | 102° |
| 2026-05-07 02:53 | 51.90301 | -3.04025 | 37071 ft | 496 kts | 102° |
| 2026-05-07 02:53 | 51.88764 | -2.93133 | 37062 ft | 497 kts | 102° |
| 2026-05-07 02:54 | 51.87212 | -2.82218 | 37068 ft | 497 kts | 102° |
| 2026-05-07 02:54 | 51.85651 | -2.71314 | 37061 ft | 498 kts | 102° |
| 2026-05-07 02:55 | 51.84078 | -2.60404 | 37050 ft | 498 kts | 103° |
| 2026-05-07 02:55 | 51.82495 | -2.49501 | 37063 ft | 499 kts | 103° |
| 2026-05-07 02:56 | 51.80909 | -2.38655 | 37049 ft | 499 kts | 103° |
| 2026-05-07 02:56 | 51.79301 | -2.27735 | 37047 ft | 500 kts | 103° |
| 2026-05-07 02:57 | 51.77683 | -2.16825 | 37045 ft | 500 kts | 103° |
| 2026-05-07 02:57 | 51.76052 | -2.05902 | 37064 ft | 500 kts | 103° |
| 2026-05-07 02:58 | 51.74410 | -1.94976 | 37063 ft | 501 kts | 103° |
| 2026-05-07 02:58 | 51.72758 | -1.84064 | 37043 ft | 501 kts | 103° |
| 2026-05-07 02:59 | 51.71097 | -1.73154 | 37053 ft | 501 kts | 103° |
| 2026-05-07 02:59 | 51.69463 | -1.62221 | 37041 ft | 502 kts | 102° |
| 2026-05-07 03:00 | 51.67946 | -1.51248 | 37058 ft | 502 kts | 102° |
| 2026-05-07 03:00 | 51.66436 | -1.40261 | 37057 ft | 502 kts | 102° |
| 2026-05-07 03:01 | 51.64901 | -1.29289 | 37053 ft | 503 kts | 102° |
| 2026-05-07 03:01 | 51.63341 | -1.18310 | 37039 ft | 503 kts | 103° |
| 2026-05-07 03:02 | 51.61778 | -1.07406 | 37056 ft | 504 kts | 103° |
| 2026-05-07 03:02 | 51.60195 | -0.96438 | 37044 ft | 504 kts | 103° |
| 2026-05-07 03:03 | 51.58600 | -0.85460 | 37053 ft | 504 kts | 103° |
| 2026-05-07 03:03 | 51.56994 | -0.74480 | 37053 ft | 504 kts | 103° |
| 2026-05-07 03:04 | 51.55380 | -0.63523 | 37052 ft | 504 kts | 103° |
| 2026-05-07 03:04 | 51.53753 | -0.52556 | 37036 ft | 505 kts | 103° |
| 2026-05-07 03:05 | 51.52114 | -0.41588 | 37034 ft | 505 kts | 103° |
| 2026-05-07 03:05 | 51.50467 | -0.30637 | 37054 ft | 505 kts | 103° |
| 2026-05-07 03:06 | 51.48809 | -0.19691 | 37052 ft | 505 kts | 103° |
| 2026-05-07 03:06 | 51.47138 | -0.08734 | 37057 ft | 505 kts | 104° |
| 2026-05-07 03:07 | 51.45456 | 0.02220 | 37053 ft | 506 kts | 104° |
| 2026-05-07 03:07 | 51.43765 | 0.13155 | 37035 ft | 506 kts | 104° |
| 2026-05-07 03:08 | 51.42060 | 0.24109 | 37051 ft | 506 kts | 104° |
| 2026-05-07 03:08 | 51.40346 | 0.35044 | 37043 ft | 507 kts | 104° |
| 2026-05-07 03:09 | 51.38620 | 0.45986 | 36972 ft | 507 kts | 104° |
| 2026-05-07 03:09 | 51.36895 | 0.56849 | 36975 ft | 507 kts | 104° |
| 2026-05-07 03:10 | 51.35147 | 0.67788 | 36987 ft | 507 kts | 104° |
| 2026-05-07 03:10 | 51.33387 | 0.78726 | 36999 ft | 508 kts | 104° |
| 2026-05-07 03:11 | 51.31616 | 0.89658 | 37018 ft | 508 kts | 104° |
| 2026-05-07 03:11 | 51.29833 | 1.00599 | 37038 ft | 509 kts | 105° |
| 2026-05-07 03:12 | 51.28040 | 1.11529 | 37040 ft | 509 kts | 105° |
| 2026-05-07 03:12 | 51.26234 | 1.22462 | 37035 ft | 509 kts | 105° |
| 2026-05-07 03:13 | 51.24419 | 1.33385 | 37021 ft | 509 kts | 105° |
| 2026-05-07 03:13 | 51.22594 | 1.44296 | 37026 ft | 509 kts | 105° |
| 2026-05-07 03:14 | 51.20757 | 1.55213 | 37027 ft | 510 kts | 105° |
| 2026-05-07 03:15 | 51.17981 | 1.71580 | 37020 ft | 510 kts | 105° |
| 2026-05-07 03:15 | 51.16118 | 1.82479 | 37018 ft | 510 kts | 105° |
| 2026-05-07 03:16 | 51.14264 | 1.93270 | 36669 ft | 494 kts | 105° |
| 2026-05-07 03:16 | 51.13403 | 1.98545 | 35812 ft | 493 kts | 103° |
| 2026-05-07 03:16 | 51.12800 | 2.03919 | 34758 ft | 496 kts | 96° |
| 2026-05-07 03:16 | 51.12490 | 2.09413 | 33633 ft | 498 kts | 94° |
| 2026-05-07 03:17 | 51.12229 | 2.14921 | 32328 ft | 501 kts | 94° |
| 2026-05-07 03:17 | 51.11969 | 2.20469 | 31020 ft | 504 kts | 94° |
| 2026-05-07 03:17 | 51.11697 | 2.25960 | 29989 ft | 502 kts | 95° |
| 2026-05-07 03:17 | 51.11404 | 2.31524 | 29066 ft | 494 kts | 95° |
| 2026-05-07 03:18 | 51.11113 | 2.36850 | 28237 ft | 485 kts | 95° |
| 2026-05-07 03:18 | 51.10815 | 2.42156 | 27421 ft | 478 kts | 95° |
| 2026-05-07 03:18 | 51.10519 | 2.47390 | 26599 ft | 473 kts | 95° |
| 2026-05-07 03:18 | 51.10225 | 2.52565 | 25787 ft | 468 kts | 95° |
| 2026-05-07 03:19 | 51.09932 | 2.57699 | 25003 ft | 463 kts | 95° |
| 2026-05-07 03:19 | 51.09641 | 2.62774 | 24253 ft | 459 kts | 95° |
| 2026-05-07 03:19 | 51.09308 | 2.67794 | 23521 ft | 454 kts | 98° |
| 2026-05-07 03:19 | 51.08793 | 2.72720 | 22700 ft | 449 kts | 101° |
| 2026-05-07 03:20 | 51.08182 | 2.77562 | 21951 ft | 444 kts | 102° |
| 2026-05-07 03:20 | 51.07549 | 2.82337 | 21242 ft | 438 kts | 102° |
| 2026-05-07 03:20 | 51.06929 | 2.87047 | 20542 ft | 433 kts | 102° |
| 2026-05-07 03:20 | 51.06327 | 2.91722 | 19850 ft | 429 kts | 101° |
| 2026-05-07 03:21 | 51.05744 | 2.96354 | 19178 ft | 425 kts | 101° |
| 2026-05-07 03:21 | 51.05175 | 3.00941 | 18530 ft | 421 kts | 101° |
| 2026-05-07 03:21 | 51.04614 | 3.05497 | 17847 ft | 417 kts | 101° |
| 2026-05-07 03:21 | 51.04061 | 3.09995 | 17153 ft | 413 kts | 101° |
| 2026-05-07 03:22 | 51.03512 | 3.14452 | 16493 ft | 409 kts | 101° |
| 2026-05-07 03:22 | 51.02966 | 3.18867 | 15854 ft | 405 kts | 101° |
| 2026-05-07 03:22 | 51.02423 | 3.23238 | 15227 ft | 401 kts | 101° |
| 2026-05-07 03:22 | 51.01890 | 3.27516 | 14627 ft | 398 kts | 101° |
| 2026-05-07 03:23 | 51.01353 | 3.31810 | 14034 ft | 395 kts | 101° |
| 2026-05-07 03:23 | 51.00821 | 3.36053 | 13409 ft | 391 kts | 101° |
| 2026-05-07 03:23 | 51.00289 | 3.40272 | 12795 ft | 388 kts | 101° |
| 2026-05-07 03:23 | 50.99761 | 3.44454 | 12193 ft | 384 kts | 101° |
| 2026-05-07 03:24 | 50.99237 | 3.48593 | 11601 ft | 381 kts | 101° |
| 2026-05-07 03:24 | 50.98719 | 3.52670 | 11289 ft | 370 kts | 101° |
| 2026-05-07 03:24 | 50.98219 | 3.56592 | 11187 ft | 354 kts | 101° |
| 2026-05-07 03:24 | 50.97741 | 3.60340 | 11086 ft | 340 kts | 101° |
| 2026-05-07 03:25 | 50.97280 | 3.63933 | 10988 ft | 326 kts | 101° |
| 2026-05-07 03:25 | 50.96837 | 3.67387 | 10898 ft | 312 kts | 101° |
| 2026-05-07 03:25 | 50.96411 | 3.70693 | 10814 ft | 300 kts | 101° |
| 2026-05-07 03:25 | 50.96001 | 3.73875 | 10724 ft | 289 kts | 101° |
| 2026-05-07 03:26 | 50.95605 | 3.76940 | 10589 ft | 280 kts | 101° |
| 2026-05-07 03:26 | 50.95218 | 3.79928 | 10414 ft | 274 kts | 101° |
| 2026-05-07 03:26 | 50.94836 | 3.82866 | 10146 ft | 271 kts | 101° |
| 2026-05-07 03:26 | 50.94456 | 3.85789 | 9834 ft | 270 kts | 101° |
| 2026-05-07 03:27 | 50.94077 | 3.88703 | 9516 ft | 269 kts | 101° |
| 2026-05-07 03:27 | 50.93700 | 3.91595 | 9224 ft | 267 kts | 101° |
| 2026-05-07 03:27 | 50.93324 | 3.94464 | 8933 ft | 265 kts | 102° |
| 2026-05-07 03:27 | 50.92950 | 3.97310 | 8642 ft | 263 kts | 101° |
| 2026-05-07 03:28 | 50.92381 | 4.00009 | 8226 ft | 259 kts | 123° |
| 2026-05-07 03:28 | 50.91287 | 4.02262 | 8041 ft | 261 kts | 129° |
| 2026-05-07 03:28 | 50.90534 | 4.03747 | 7997 ft | 261 kts | 129° |
| 2026-05-07 03:28 | 50.89618 | 4.05571 | 7992 ft | 260 kts | 128° |
| 2026-05-07 03:29 | 50.88837 | 4.07131 | 7989 ft | 259 kts | 128° |
| 2026-05-07 03:29 | 50.88224 | 4.08360 | 7997 ft | 259 kts | 128° |
| 2026-05-07 03:29 | 50.87151 | 4.10511 | 7992 ft | 260 kts | 128° |
| 2026-05-07 03:29 | 50.86032 | 4.12760 | 7995 ft | 260 kts | 128° |
| 2026-05-07 03:30 | 50.84915 | 4.15007 | 7996 ft | 260 kts | 128° |
| 2026-05-07 03:30 | 50.83798 | 4.17257 | 7988 ft | 260 kts | 128° |
| 2026-05-07 03:30 | 50.82695 | 4.19475 | 7993 ft | 260 kts | 128° |
| 2026-05-07 03:30 | 50.81564 | 4.21753 | 7961 ft | 257 kts | 128° |
| 2026-05-07 03:31 | 50.80496 | 4.23900 | 7503 ft | 248 kts | 128° |
| 2026-05-07 03:31 | 50.79435 | 4.26033 | 6866 ft | 245 kts | 127° |
| 2026-05-07 03:31 | 50.78386 | 4.28142 | 6187 ft | 244 kts | 127° |
| 2026-05-07 03:31 | 50.77320 | 4.30283 | 5405 ft | 245 kts | 127° |
| 2026-05-07 03:32 | 50.76278 | 4.32371 | 4690 ft | 245 kts | 127° |
| 2026-05-07 03:32 | 50.75229 | 4.34473 | 4037 ft | 242 kts | 127° |
| 2026-05-07 03:32 | 50.74188 | 4.36557 | 3414 ft | 241 kts | 127° |
| 2026-05-07 03:32 | 50.73288 | 4.38709 | 3160 ft | 230 kts | 108° |
| 2026-05-07 03:33 | 50.73205 | 4.41116 | 3050 ft | 214 kts | 72° |
| 2026-05-07 03:33 | 50.73986 | 4.42953 | 3016 ft | 196 kts | 34° |
| 2026-05-07 03:33 | 50.75185 | 4.43673 | 3013 ft | 177 kts | 13° |
| 2026-05-07 03:33 | 50.76374 | 4.44136 | 2770 ft | 174 kts | 14° |
| 2026-05-07 03:34 | 50.77533 | 4.44608 | 2536 ft | 170 kts | 14° |
| 2026-05-07 03:34 | 50.78664 | 4.45065 | 2302 ft | 165 kts | 14° |
| 2026-05-07 03:34 | 50.79763 | 4.45511 | 2086 ft | 160 kts | 14° |
| 2026-05-07 03:34 | 50.80800 | 4.45931 | 1901 ft | 149 kts | 14° |
| 2026-05-07 03:35 | 50.81763 | 4.46322 | 1702 ft | 139 kts | 14° |
| 2026-05-07 03:35 | 50.82701 | 4.46704 | 1499 ft | 139 kts | 14° |
| 2026-05-07 03:35 | 50.83634 | 4.47082 | 1317 ft | 138 kts | 14° |
| 2026-05-07 03:35 | 50.84566 | 4.47463 | 1101 ft | 139 kts | 14° |
| 2026-05-07 03:36 | 50.85505 | 4.47844 | 898 ft | 139 kts | 14° |
| 2026-05-07 03:36 | 50.86442 | 4.48227 | 701 ft | 139 kts | 14° |
| 2026-05-07 03:36 | 50.87381 | 4.48600 | 540 ft | 141 kts | 14° |
| 2026-05-07 03:36 | 50.88344 | 4.48992 | 334 ft | 146 kts | 14° |
| 2026-05-07 03:37 | 50.89334 | 4.49401 | 204 ft | 147 kts | 14° |
| 2026-05-07 03:37 | 50.90257 | 4.49781 | 137 ft | 125 kts | 13° |
| 2026-05-07 03:37 | 50.90968 | 4.50071 | 120 ft | 74 kts | 15° |
| 2026-05-07 03:37 | 50.91190 | 4.50149 | 121 ft | 6 kts | 346° |
| 2026-05-07 03:38 | 50.91195 | 4.50087 | 119 ft | 7 kts | 246° |
| 2026-05-07 03:38 | 50.91176 | 4.50018 | 121 ft | 7 kts | 245° |
| 2026-05-07 03:38 | 50.91157 | 4.49950 | 120 ft | 7 kts | 246° |
| 2026-05-07 03:38 | 50.91137 | 4.49881 | 123 ft | 8 kts | 244° |
| 2026-05-07 03:39 | 50.91093 | 4.49732 | 120 ft | 19 kts | 246° |
| 2026-05-07 03:39 | 50.91038 | 4.49539 | 122 ft | 19 kts | 246° |
| 2026-05-07 03:39 | 50.90985 | 4.49345 | 119 ft | 19 kts | 246° |
| 2026-05-07 03:39 | 50.90931 | 4.49152 | 122 ft | 19 kts | 244° |
| 2026-05-07 03:40 | 50.90872 | 4.48963 | 123 ft | 19 kts | 244° |
| 2026-05-07 03:40 | 50.90816 | 4.48771 | 123 ft | 19 kts | 245° |
| 2026-05-07 03:40 | 50.90760 | 4.48579 | 121 ft | 19 kts | 245° |
| 2026-05-07 03:40 | 50.90697 | 4.48394 | 120 ft | 19 kts | 233° |
| 2026-05-07 03:41 | 50.90602 | 4.48247 | 122 ft | 19 kts | 218° |
| 2026-05-07 03:41 | 50.90494 | 4.48123 | 121 ft | 19 kts | 215° |
| 2026-05-07 03:41 | 50.90375 | 4.48041 | 121 ft | 19 kts | 191° |
| 2026-05-07 03:41 | 50.90290 | 4.48010 | 123 ft | 6 kts | 165° |
| 2026-05-07 03:42 | 50.90264 | 4.48021 | 120 ft | 1 kts | 155° |
| 2026-05-07 03:42 | 50.90262 | 4.48024 | 120 ft | 1 kts | 155° |
| 2026-05-07 03:42 | 50.90256 | 4.48028 | 120 ft | 1 kts | 154° |
| 2026-05-07 03:42 | 50.90254 | 4.48029 | 120 ft | 0 kts | 154° |